Terminal Aerodrome Forecast
Issued by NWS

Home | Current Version | Previous Version | Graphics & Text | Print | Product List | Glossary Off
Versions: 1 2 3 4 5 6 7 8 9 10 11 12 13 14

000
FTUS43 KDDC 262320
TAFGCK
TAF
KGCK 262320Z 2700/2724 15008KT P6SM SCT040
     FM270200 12008KT P6SM VCTS BKN040CB
      TEMPO 2705/2709 4SM TSRA OVC020CB
     FM270900 15006KT P6SM BKN050
     FM271200 18006KT P6SM BKN200=

USA.gov is the U.S. government's official web portal to all federal, state and local government web resources and services.